sensor_id;sensor_type;location;lat;lon;timestamp;P1;durP1;ratioP1;P2;durP2;ratioP2
21412;SDS011;10867;45.084;5.732;2022-07-10T00:00:08;5.75;;;2.47;;
21412;SDS011;10867;45.084;5.732;2022-07-10T00:02:35;3.58;;;2.47;;
21412;SDS011;10867;45.084;5.732;2022-07-10T00:05:02;3.63;;;2.45;;
21412;SDS011;10867;45.084;5.732;2022-07-10T00:07:28;4.78;;;2.38;;
21412;SDS011;10867;45.084;5.732;2022-07-10T00:09:55;6.95;;;2.53;;
21412;SDS011;10867;45.084;5.732;2022-07-10T00:12:21;5.80;;;2.60;;
21412;SDS011;10867;45.084;5.732;2022-07-10T00:14:47;3.47;;;2.13;;
21412;SDS011;10867;45.084;5.732;2022-07-10T00:17:14;6.32;;;2.22;;
21412;SDS011;10867;45.084;5.732;2022-07-10T00:19:40;2.72;;;2.28;;
21412;SDS011;10867;45.084;5.732;2022-07-10T00:22:06;3.55;;;1.90;;
21412;SDS011;10867;45.084;5.732;2022-07-10T00:24:32;3.38;;;2.25;;
21412;SDS011;10867;45.084;5.732;2022-07-10T00:26:58;3.78;;;2.40;;
21412;SDS011;10867;45.084;5.732;2022-07-10T00:29:25;5.50;;;2.67;;
21412;SDS011;10867;45.084;5.732;2022-07-10T00:31:51;3.88;;;2.30;;
21412;SDS011;10867;45.084;5.732;2022-07-10T00:34:17;5.75;;;2.40;;
21412;SDS011;10867;45.084;5.732;2022-07-10T00:36:43;4.45;;;2.58;;
21412;SDS011;10867;45.084;5.732;2022-07-10T00:39:10;6.75;;;2.88;;
21412;SDS011;10867;45.084;5.732;2022-07-10T00:41:36;3.05;;;2.30;;
21412;SDS011;10867;45.084;5.732;2022-07-10T00:44:02;3.83;;;2.40;;
21412;SDS011;10867;45.084;5.732;2022-07-10T00:46:29;3.00;;;2.70;;
21412;SDS011;10867;45.084;5.732;2022-07-10T00:48:56;5.65;;;2.50;;
21412;SDS011;10867;45.084;5.732;2022-07-10T00:51:23;3.63;;;2.63;;
21412;SDS011;10867;45.084;5.732;2022-07-10T00:53:50;4.28;;;2.17;;
21412;SDS011;10867;45.084;5.732;2022-07-10T00:56:17;5.40;;;2.67;;
21412;SDS011;10867;45.084;5.732;2022-07-10T00:58:45;5.53;;;2.50;;
21412;SDS011;10867;45.084;5.732;2022-07-10T01:01:11;3.03;;;2.28;;
21412;SDS011;10867;45.084;5.732;2022-07-10T01:03:37;3.13;;;2.28;;
21412;SDS011;10867;45.084;5.732;2022-07-10T01:06:04;5.80;;;2.35;;
21412;SDS011;10867;45.084;5.732;2022-07-10T01:08:30;3.13;;;2.17;;
21412;SDS011;10867;45.084;5.732;2022-07-10T01:10:56;3.95;;;2.60;;
21412;SDS011;10867;45.084;5.732;2022-07-10T01:13:23;3.40;;;2.33;;
21412;SDS011;10867;45.084;5.732;2022-07-10T01:15:49;3.97;;;2.30;;
21412;SDS011;10867;45.084;5.732;2022-07-10T01:18:15;4.13;;;2.63;;
21412;SDS011;10867;45.084;5.732;2022-07-10T01:20:41;3.15;;;2.63;;
21412;SDS011;10867;45.084;5.732;2022-07-10T01:23:07;3.55;;;2.28;;
21412;SDS011;10867;45.084;5.732;2022-07-10T01:25:33;5.65;;;2.13;;
21412;SDS011;10867;45.084;5.732;2022-07-10T01:27:59;3.80;;;2.10;;
21412;SDS011;10867;45.084;5.732;2022-07-10T01:30:26;3.47;;;2.25;;
21412;SDS011;10867;45.084;5.732;2022-07-10T01:32:53;5.38;;;2.42;;
21412;SDS011;10867;45.084;5.732;2022-07-10T01:35:19;2.90;;;2.30;;
21412;SDS011;10867;45.084;5.732;2022-07-10T01:37:45;4.05;;;2.30;;
21412;SDS011;10867;45.084;5.732;2022-07-10T01:40:11;7.53;;;2.58;;
21412;SDS011;10867;45.084;5.732;2022-07-10T01:42:39;4.65;;;2.70;;
21412;SDS011;10867;45.084;5.732;2022-07-10T01:45:08;4.32;;;2.40;;
21412;SDS011;10867;45.084;5.732;2022-07-10T01:47:34;4.03;;;2.35;;
21412;SDS011;10867;45.084;5.732;2022-07-10T01:50:01;3.88;;;2.45;;
21412;SDS011;10867;45.084;5.732;2022-07-10T01:52:28;2.90;;;2.50;;
21412;SDS011;10867;45.084;5.732;2022-07-10T01:54:54;5.80;;;2.28;;
21412;SDS011;10867;45.084;5.732;2022-07-10T01:57:20;5.95;;;3.20;;
21412;SDS011;10867;45.084;5.732;2022-07-10T01:59:47;4.43;;;2.30;;
21412;SDS011;10867;45.084;5.732;2022-07-10T02:02:13;8.00;;;2.50;;
21412;SDS011;10867;45.084;5.732;2022-07-10T02:04:39;6.05;;;2.70;;
21412;SDS011;10867;45.084;5.732;2022-07-10T02:07:06;3.47;;;2.35;;
21412;SDS011;10867;45.084;5.732;2022-07-10T02:09:32;6.07;;;2.47;;
21412;SDS011;10867;45.084;5.732;2022-07-10T02:11:58;3.78;;;2.58;;
21412;SDS011;10867;45.084;5.732;2022-07-10T02:14:24;3.75;;;2.63;;
21412;SDS011;10867;45.084;5.732;2022-07-10T02:16:51;4.47;;;2.60;;
21412;SDS011;10867;45.084;5.732;2022-07-10T02:19:17;3.20;;;2.20;;
21412;SDS011;10867;45.084;5.732;2022-07-10T02:21:43;3.60;;;2.30;;
21412;SDS011;10867;45.084;5.732;2022-07-10T02:24:11;7.05;;;2.40;;
21412;SDS011;10867;45.084;5.732;2022-07-10T02:26:37;5.55;;;2.75;;
21412;SDS011;10867;45.084;5.732;2022-07-10T02:29:03;3.78;;;2.40;;
21412;SDS011;10867;45.084;5.732;2022-07-10T02:31:29;4.25;;;2.40;;
21412;SDS011;10867;45.084;5.732;2022-07-10T02:33:57;2.72;;;2.35;;
21412;SDS011;10867;45.084;5.732;2022-07-10T02:36:23;4.70;;;2.50;;
21412;SDS011;10867;45.084;5.732;2022-07-10T02:38:49;2.88;;;2.45;;
21412;SDS011;10867;45.084;5.732;2022-07-10T02:41:15;7.47;;;3.03;;
21412;SDS011;10867;45.084;5.732;2022-07-10T02:43:41;3.42;;;2.30;;
21412;SDS011;10867;45.084;5.732;2022-07-10T02:46:07;3.65;;;2.60;;
21412;SDS011;10867;45.084;5.732;2022-07-10T02:48:34;3.78;;;2.67;;
21412;SDS011;10867;45.084;5.732;2022-07-10T02:51:00;2.95;;;2.40;;
21412;SDS011;10867;45.084;5.732;2022-07-10T02:53:26;4.32;;;2.75;;
21412;SDS011;10867;45.084;5.732;2022-07-10T02:55:52;3.85;;;2.60;;
21412;SDS011;10867;45.084;5.732;2022-07-10T02:58:18;3.45;;;2.58;;
21412;SDS011;10867;45.084;5.732;2022-07-10T03:00:44;3.30;;;2.60;;
21412;SDS011;10867;45.084;5.732;2022-07-10T03:03:11;4.53;;;2.70;;
21412;SDS011;10867;45.084;5.732;2022-07-10T03:05:37;3.13;;;2.22;;
21412;SDS011;10867;45.084;5.732;2022-07-10T03:08:03;4.40;;;2.58;;
21412;SDS011;10867;45.084;5.732;2022-07-10T03:10:29;3.00;;;2.70;;
21412;SDS011;10867;45.084;5.732;2022-07-10T03:12:55;4.40;;;2.90;;
21412;SDS011;10867;45.084;5.732;2022-07-10T03:15:21;5.90;;;2.80;;
21412;SDS011;10867;45.084;5.732;2022-07-10T03:17:47;5.93;;;3.10;;
21412;SDS011;10867;45.084;5.732;2022-07-10T03:20:14;3.45;;;2.85;;
21412;SDS011;10867;45.084;5.732;2022-07-10T03:22:40;7.40;;;2.95;;
21412;SDS011;10867;45.084;5.732;2022-07-10T03:25:06;4.40;;;2.95;;
21412;SDS011;10867;45.084;5.732;2022-07-10T03:27:32;4.95;;;3.13;;
21412;SDS011;10867;45.084;5.732;2022-07-10T03:29:59;3.95;;;2.72;;
21412;SDS011;10867;45.084;5.732;2022-07-10T03:32:25;4.97;;;3.25;;
21412;SDS011;10867;45.084;5.732;2022-07-10T03:34:51;4.55;;;3.03;;
21412;SDS011;10867;45.084;5.732;2022-07-10T03:37:17;6.63;;;3.28;;
21412;SDS011;10867;45.084;5.732;2022-07-10T03:39:43;4.10;;;2.67;;
21412;SDS011;10867;45.084;5.732;2022-07-10T03:42:09;4.68;;;3.47;;
21412;SDS011;10867;45.084;5.732;2022-07-10T03:44:35;4.18;;;3.78;;
21412;SDS011;10867;45.084;5.732;2022-07-10T03:47:02;4.25;;;3.45;;
21412;SDS011;10867;45.084;5.732;2022-07-10T03:49:28;5.47;;;2.85;;
21412;SDS011;10867;45.084;5.732;2022-07-10T03:51:58;5.93;;;3.35;;
21412;SDS011;10867;45.084;5.732;2022-07-10T03:54:24;3.58;;;3.03;;
21412;SDS011;10867;45.084;5.732;2022-07-10T03:56:50;3.58;;;3.17;;
21412;SDS011;10867;45.084;5.732;2022-07-10T03:59:34;5.32;;;3.13;;
21412;SDS011;10867;45.084;5.732;2022-07-10T04:02:00;3.78;;;2.90;;
21412;SDS011;10867;45.084;5.732;2022-07-10T04:04:27;5.30;;;2.90;;
21412;SDS011;10867;45.084;5.732;2022-07-10T04:06:53;5.27;;;3.20;;
21412;SDS011;10867;45.084;5.732;2022-07-10T04:09:20;4.07;;;2.90;;
21412;SDS011;10867;45.084;5.732;2022-07-10T04:11:46;3.80;;;2.85;;
21412;SDS011;10867;45.084;5.732;2022-07-10T04:14:12;4.30;;;2.92;;
21412;SDS011;10867;45.084;5.732;2022-07-10T04:16:38;3.78;;;2.80;;
21412;SDS011;10867;45.084;5.732;2022-07-10T04:19:04;4.53;;;3.00;;
21412;SDS011;10867;45.084;5.732;2022-07-10T04:21:30;3.72;;;2.75;;
21412;SDS011;10867;45.084;5.732;2022-07-10T04:23:56;4.78;;;3.00;;
21412;SDS011;10867;45.084;5.732;2022-07-10T04:26:22;4.60;;;3.00;;
21412;SDS011;10867;45.084;5.732;2022-07-10T04:28:48;4.68;;;3.08;;
21412;SDS011;10867;45.084;5.732;2022-07-10T04:31:14;3.50;;;2.80;;
21412;SDS011;10867;45.084;5.732;2022-07-10T04:33:41;3.88;;;2.80;;
21412;SDS011;10867;45.084;5.732;2022-07-10T04:36:07;3.80;;;2.83;;
21412;SDS011;10867;45.084;5.732;2022-07-10T04:38:33;4.90;;;2.92;;
21412;SDS011;10867;45.084;5.732;2022-07-10T04:40:59;4.65;;;2.80;;
21412;SDS011;10867;45.084;5.732;2022-07-10T04:43:26;3.63;;;2.90;;
21412;SDS011;10867;45.084;5.732;2022-07-10T04:45:52;3.88;;;2.70;;
21412;SDS011;10867;45.084;5.732;2022-07-10T04:48:18;4.60;;;2.90;;
21412;SDS011;10867;45.084;5.732;2022-07-10T04:50:44;5.40;;;3.20;;
21412;SDS011;10867;45.084;5.732;2022-07-10T04:53:10;4.30;;;3.10;;
21412;SDS011;10867;45.084;5.732;2022-07-10T04:55:36;4.60;;;2.90;;
21412;SDS011;10867;45.084;5.732;2022-07-10T04:58:02;3.87;;;3.00;;
21412;SDS011;10867;45.084;5.732;2022-07-10T05:00:28;5.63;;;2.92;;
21412;SDS011;10867;45.084;5.732;2022-07-10T05:02:54;5.05;;;3.00;;
21412;SDS011;10867;45.084;5.732;2022-07-10T05:05:20;4.22;;;3.00;;
21412;SDS011;10867;45.084;5.732;2022-07-10T05:07:47;3.60;;;2.90;;
21412;SDS011;10867;45.084;5.732;2022-07-10T05:10:13;4.72;;;3.13;;
21412;SDS011;10867;45.084;5.732;2022-07-10T05:12:39;3.78;;;2.92;;
21412;SDS011;10867;45.084;5.732;2022-07-10T05:15:05;3.67;;;3.05;;
21412;SDS011;10867;45.084;5.732;2022-07-10T05:17:31;4.63;;;3.42;;
21412;SDS011;10867;45.084;5.732;2022-07-10T05:19:59;5.20;;;3.45;;
21412;SDS011;10867;45.084;5.732;2022-07-10T05:22:25;5.60;;;3.67;;
21412;SDS011;10867;45.084;5.732;2022-07-10T05:24:51;5.07;;;3.50;;
21412;SDS011;10867;45.084;5.732;2022-07-10T05:27:17;4.40;;;3.55;;
21412;SDS011;10867;45.084;5.732;2022-07-10T05:29:45;4.18;;;3.38;;
21412;SDS011;10867;45.084;5.732;2022-07-10T05:32:11;4.65;;;3.65;;
21412;SDS011;10867;45.084;5.732;2022-07-10T05:34:37;5.35;;;3.67;;
21412;SDS011;10867;45.084;5.732;2022-07-10T05:37:03;5.32;;;3.30;;
21412;SDS011;10867;45.084;5.732;2022-07-10T05:39:29;4.22;;;3.00;;
21412;SDS011;10867;45.084;5.732;2022-07-10T05:41:55;5.47;;;2.88;;
21412;SDS011;10867;45.084;5.732;2022-07-10T05:44:23;4.55;;;2.63;;
21412;SDS011;10867;45.084;5.732;2022-07-10T05:46:49;3.80;;;2.80;;
21412;SDS011;10867;45.084;5.732;2022-07-10T05:49:15;3.63;;;2.63;;
21412;SDS011;10867;45.084;5.732;2022-07-10T05:51:41;4.70;;;2.80;;
21412;SDS011;10867;45.084;5.732;2022-07-10T05:54:08;4.30;;;2.38;;
21412;SDS011;10867;45.084;5.732;2022-07-10T05:56:34;3.95;;;2.58;;
21412;SDS011;10867;45.084;5.732;2022-07-10T05:59:00;3.90;;;2.42;;
21412;SDS011;10867;45.084;5.732;2022-07-10T06:01:26;4.00;;;2.80;;
21412;SDS011;10867;45.084;5.732;2022-07-10T06:03:52;4.25;;;2.60;;
21412;SDS011;10867;45.084;5.732;2022-07-10T06:06:19;3.25;;;2.53;;
21412;SDS011;10867;45.084;5.732;2022-07-10T06:08:45;3.80;;;2.63;;
21412;SDS011;10867;45.084;5.732;2022-07-10T06:11:11;4.30;;;2.78;;
21412;SDS011;10867;45.084;5.732;2022-07-10T06:13:38;5.40;;;2.80;;
21412;SDS011;10867;45.084;5.732;2022-07-10T06:16:04;4.57;;;2.70;;
21412;SDS011;10867;45.084;5.732;2022-07-10T06:18:30;5.40;;;2.63;;
21412;SDS011;10867;45.084;5.732;2022-07-10T06:20:57;3.78;;;2.33;;
21412;SDS011;10867;45.084;5.732;2022-07-10T06:23:23;5.47;;;2.65;;
21412;SDS011;10867;45.084;5.732;2022-07-10T06:25:49;3.38;;;2.30;;
21412;SDS011;10867;45.084;5.732;2022-07-10T06:28:16;3.97;;;2.28;;
21412;SDS011;10867;45.084;5.732;2022-07-10T06:30:42;4.35;;;2.50;;
21412;SDS011;10867;45.084;5.732;2022-07-10T06:33:08;3.30;;;2.97;;
21412;SDS011;10867;45.084;5.732;2022-07-10T06:35:34;4.45;;;2.85;;
21412;SDS011;10867;45.084;5.732;2022-07-10T06:38:01;6.43;;;2.90;;
21412;SDS011;10867;45.084;5.732;2022-07-10T06:40:28;6.65;;;3.55;;
21412;SDS011;10867;45.084;5.732;2022-07-10T06:42:55;4.00;;;3.22;;
21412;SDS011;10867;45.084;5.732;2022-07-10T06:45:21;3.80;;;3.50;;
21412;SDS011;10867;45.084;5.732;2022-07-10T06:47:47;7.88;;;3.35;;
21412;SDS011;10867;45.084;5.732;2022-07-10T06:50:24;6.05;;;3.10;;
21412;SDS011;10867;45.084;5.732;2022-07-10T06:52:51;5.00;;;3.22;;
21412;SDS011;10867;45.084;5.732;2022-07-10T06:55:20;4.40;;;2.72;;
21412;SDS011;10867;45.084;5.732;2022-07-10T06:57:46;5.15;;;2.45;;
21412;SDS011;10867;45.084;5.732;2022-07-10T07:00:13;2.85;;;2.53;;
21412;SDS011;10867;45.084;5.732;2022-07-10T07:02:39;3.47;;;2.80;;
21412;SDS011;10867;45.084;5.732;2022-07-10T07:05:05;5.22;;;3.08;;
21412;SDS011;10867;45.084;5.732;2022-07-10T07:07:33;6.28;;;2.85;;
21412;SDS011;10867;45.084;5.732;2022-07-10T07:09:59;5.53;;;2.90;;
21412;SDS011;10867;45.084;5.732;2022-07-10T07:12:26;4.32;;;2.38;;
21412;SDS011;10867;45.084;5.732;2022-07-10T07:14:52;4.68;;;2.70;;
21412;SDS011;10867;45.084;5.732;2022-07-10T07:17:19;5.88;;;2.70;;
21412;SDS011;10867;45.084;5.732;2022-07-10T07:19:50;5.32;;;2.40;;
21412;SDS011;10867;45.084;5.732;2022-07-10T07:22:35;4.25;;;2.60;;
21412;SDS011;10867;45.084;5.732;2022-07-10T07:25:20;4.80;;;2.40;;
21412;SDS011;10867;45.084;5.732;2022-07-10T07:27:46;4.60;;;2.45;;
21412;SDS011;10867;45.084;5.732;2022-07-10T07:30:13;4.13;;;2.30;;
21412;SDS011;10867;45.084;5.732;2022-07-10T07:32:43;5.80;;;2.33;;
21412;SDS011;10867;45.084;5.732;2022-07-10T07:35:10;4.68;;;2.45;;
21412;SDS011;10867;45.084;5.732;2022-07-10T07:40:06;3.22;;;2.30;;
21412;SDS011;10867;45.084;5.732;2022-07-10T07:42:33;4.00;;;2.90;;
21412;SDS011;10867;45.084;5.732;2022-07-10T07:44:59;6.20;;;3.10;;
21412;SDS011;10867;45.084;5.732;2022-07-10T07:47:25;5.60;;;2.92;;
21412;SDS011;10867;45.084;5.732;2022-07-10T07:49:52;2.60;;;2.20;;
21412;SDS011;10867;45.084;5.732;2022-07-10T07:52:18;5.35;;;2.60;;
21412;SDS011;10867;45.084;5.732;2022-07-10T07:54:44;3.92;;;2.40;;
21412;SDS011;10867;45.084;5.732;2022-07-10T07:57:10;4.45;;;2.40;;
21412;SDS011;10867;45.084;5.732;2022-07-10T07:59:36;4.18;;;2.30;;
21412;SDS011;10867;45.084;5.732;2022-07-10T08:02:05;5.25;;;2.30;;
21412;SDS011;10867;45.084;5.732;2022-07-10T08:04:31;3.22;;;2.50;;
21412;SDS011;10867;45.084;5.732;2022-07-10T08:06:57;4.18;;;2.38;;
21412;SDS011;10867;45.084;5.732;2022-07-10T08:09:23;5.10;;;2.70;;
21412;SDS011;10867;45.084;5.732;2022-07-10T08:11:49;3.25;;;2.13;;
21412;SDS011;10867;45.084;5.732;2022-07-10T08:14:15;4.22;;;2.13;;
21412;SDS011;10867;45.084;5.732;2022-07-10T08:16:42;2.40;;;2.00;;
21412;SDS011;10867;45.084;5.732;2022-07-10T08:19:09;2.80;;;2.08;;
21412;SDS011;10867;45.084;5.732;2022-07-10T08:21:35;2.83;;;2.10;;
21412;SDS011;10867;45.084;5.732;2022-07-10T08:24:01;6.38;;;2.08;;
21412;SDS011;10867;45.084;5.732;2022-07-10T08:26:27;2.50;;;1.90;;
21412;SDS011;10867;45.084;5.732;2022-07-10T08:28:53;2.40;;;1.90;;
21412;SDS011;10867;45.084;5.732;2022-07-10T08:31:19;3.40;;;1.38;;
21412;SDS011;10867;45.084;5.732;2022-07-10T08:33:45;3.40;;;1.90;;
21412;SDS011;10867;45.084;5.732;2022-07-10T08:36:13;2.90;;;1.60;;
21412;SDS011;10867;45.084;5.732;2022-07-10T08:38:39;2.50;;;1.50;;
21412;SDS011;10867;45.084;5.732;2022-07-10T08:41:05;2.35;;;1.77;;
21412;SDS011;10867;45.084;5.732;2022-07-10T08:43:31;3.40;;;2.00;;
21412;SDS011;10867;45.084;5.732;2022-07-10T08:45:58;2.30;;;1.88;;
21412;SDS011;10867;45.084;5.732;2022-07-10T08:48:24;2.85;;;1.48;;
21412;SDS011;10867;45.084;5.732;2022-07-10T08:50:53;3.38;;;1.60;;
21412;SDS011;10867;45.084;5.732;2022-07-10T08:53:30;4.22;;;1.40;;
21412;SDS011;10867;45.084;5.732;2022-07-10T08:55:59;2.40;;;1.20;;
21412;SDS011;10867;45.084;5.732;2022-07-10T08:58:28;3.38;;;1.25;;
21412;SDS011;10867;45.084;5.732;2022-07-10T09:00:57;3.10;;;1.35;;
21412;SDS011;10867;45.084;5.732;2022-07-10T09:03:23;2.58;;;1.50;;
21412;SDS011;10867;45.084;5.732;2022-07-10T09:05:51;3.85;;;1.45;;
21412;SDS011;10867;45.084;5.732;2022-07-10T09:08:27;2.83;;;1.58;;
21412;SDS011;10867;45.084;5.732;2022-07-10T09:13:52;3.92;;;1.40;;
21412;SDS011;10867;45.084;5.732;2022-07-10T09:18:51;3.80;;;1.48;;
21412;SDS011;10867;45.084;5.732;2022-07-10T09:21:17;4.28;;;1.60;;
21412;SDS011;10867;45.084;5.732;2022-07-10T09:23:43;2.55;;;1.55;;
21412;SDS011;10867;45.084;5.732;2022-07-10T09:26:10;1.67;;;1.48;;
21412;SDS011;10867;45.084;5.732;2022-07-10T09:28:36;2.67;;;1.52;;
21412;SDS011;10867;45.084;5.732;2022-07-10T09:31:02;3.53;;;1.70;;
21412;SDS011;10867;45.084;5.732;2022-07-10T09:33:28;4.40;;;1.50;;
21412;SDS011;10867;45.084;5.732;2022-07-10T09:43:45;4.57;;;1.30;;
21412;SDS011;10867;45.084;5.732;2022-07-10T09:46:11;2.97;;;1.40;;
21412;SDS011;10867;45.084;5.732;2022-07-10T09:48:37;5.13;;;1.45;;
21412;SDS011;10867;45.084;5.732;2022-07-10T09:51:07;1.42;;;1.30;;
21412;SDS011;10867;45.084;5.732;2022-07-10T09:53:36;2.90;;;1.23;;
21412;SDS011;10867;45.084;5.732;2022-07-10T09:56:04;1.80;;;1.40;;
21412;SDS011;10867;45.084;5.732;2022-07-10T09:58:32;1.38;;;1.23;;
21412;SDS011;10867;45.084;5.732;2022-07-10T10:01:03;3.50;;;1.42;;
21412;SDS011;10867;45.084;5.732;2022-07-10T10:03:33;8.93;;;1.60;;
21412;SDS011;10867;45.084;5.732;2022-07-10T10:06:16;1.92;;;1.48;;
21412;SDS011;10867;45.084;5.732;2022-07-10T10:11:15;2.35;;;1.40;;
21412;SDS011;10867;45.084;5.732;2022-07-10T10:13:42;1.75;;;1.20;;
21412;SDS011;10867;45.084;5.732;2022-07-10T10:16:09;3.08;;;1.63;;
21412;SDS011;10867;45.084;5.732;2022-07-10T10:18:36;2.85;;;1.40;;
21412;SDS011;10867;45.084;5.732;2022-07-10T10:21:23;2.45;;;1.40;;
21412;SDS011;10867;45.084;5.732;2022-07-10T10:23:49;5.45;;;1.60;;
21412;SDS011;10867;45.084;5.732;2022-07-10T10:26:16;1.75;;;1.42;;
21412;SDS011;10867;45.084;5.732;2022-07-10T10:28:42;2.53;;;1.65;;
21412;SDS011;10867;45.084;5.732;2022-07-10T10:31:08;1.38;;;1.27;;
21412;SDS011;10867;45.084;5.732;2022-07-10T10:36:08;4.30;;;1.50;;
21412;SDS011;10867;45.084;5.732;2022-07-10T10:41:27;1.98;;;1.40;;
21412;SDS011;10867;45.084;5.732;2022-07-10T10:46:31;2.60;;;1.30;;
21412;SDS011;10867;45.084;5.732;2022-07-10T10:49:04;4.00;;;1.70;;
21412;SDS011;10867;45.084;5.732;2022-07-10T10:54:17;3.45;;;1.50;;
21412;SDS011;10867;45.084;5.732;2022-07-10T10:56:43;5.53;;;1.38;;
21412;SDS011;10867;45.084;5.732;2022-07-10T10:59:10;3.90;;;2.47;;
21412;SDS011;10867;45.084;5.732;2022-07-10T11:04:41;2.72;;;2.30;;
21412;SDS011;10867;45.084;5.732;2022-07-10T11:07:08;6.18;;;2.35;;
21412;SDS011;10867;45.084;5.732;2022-07-10T11:09:34;1.90;;;1.60;;
21412;SDS011;10867;45.084;5.732;2022-07-10T11:14:36;2.97;;;1.73;;
21412;SDS011;10867;45.084;5.732;2022-07-10T11:17:03;3.63;;;1.50;;
21412;SDS011;10867;45.084;5.732;2022-07-10T11:19:32;3.05;;;1.70;;
21412;SDS011;10867;45.084;5.732;2022-07-10T11:22:24;2.63;;;1.50;;
21412;SDS011;10867;45.084;5.732;2022-07-10T11:29:56;3.05;;;1.30;;
21412;SDS011;10867;45.084;5.732;2022-07-10T11:32:22;3.25;;;1.58;;
21412;SDS011;10867;45.084;5.732;2022-07-10T11:34:48;1.92;;;1.40;;
21412;SDS011;10867;45.084;5.732;2022-07-10T11:37:15;4.55;;;1.70;;
21412;SDS011;10867;45.084;5.732;2022-07-10T11:39:42;5.68;;;1.60;;
21412;SDS011;10867;45.084;5.732;2022-07-10T11:42:08;6.22;;;1.50;;
21412;SDS011;10867;45.084;5.732;2022-07-10T11:44:34;1.45;;;1.33;;
21412;SDS011;10867;45.084;5.732;2022-07-10T11:47:00;2.95;;;1.55;;
21412;SDS011;10867;45.084;5.732;2022-07-10T11:49:28;2.78;;;1.45;;
21412;SDS011;10867;45.084;5.732;2022-07-10T11:51:55;2.00;;;1.60;;
21412;SDS011;10867;45.084;5.732;2022-07-10T11:54:26;2.92;;;1.50;;
21412;SDS011;10867;45.084;5.732;2022-07-10T11:56:52;1.83;;;1.45;;
21412;SDS011;10867;45.084;5.732;2022-07-10T11:59:26;3.00;;;1.67;;
21412;SDS011;10867;45.084;5.732;2022-07-10T12:01:52;4.22;;;1.40;;
21412;SDS011;10867;45.084;5.732;2022-07-10T12:04:21;2.45;;;1.30;;
21412;SDS011;10867;45.084;5.732;2022-07-10T12:06:52;1.65;;;1.35;;
21412;SDS011;10867;45.084;5.732;2022-07-10T12:09:19;2.53;;;1.65;;
21412;SDS011;10867;45.084;5.732;2022-07-10T12:12:02;2.95;;;2.00;;
21412;SDS011;10867;45.084;5.732;2022-07-10T12:14:28;2.47;;;1.70;;
21412;SDS011;10867;45.084;5.732;2022-07-10T12:16:55;6.78;;;1.65;;
21412;SDS011;10867;45.084;5.732;2022-07-10T12:19:22;3.10;;;1.50;;
21412;SDS011;10867;45.084;5.732;2022-07-10T12:21:49;4.72;;;2.00;;
21412;SDS011;10867;45.084;5.732;2022-07-10T12:24:16;2.58;;;1.60;;
21412;SDS011;10867;45.084;5.732;2022-07-10T12:26:45;5.40;;;2.00;;
21412;SDS011;10867;45.084;5.732;2022-07-10T12:29:21;2.13;;;1.70;;
21412;SDS011;10867;45.084;5.732;2022-07-10T12:31:48;3.80;;;1.77;;
21412;SDS011;10867;45.084;5.732;2022-07-10T12:34:14;2.53;;;1.80;;
21412;SDS011;10867;45.084;5.732;2022-07-10T12:36:45;3.88;;;1.48;;
21412;SDS011;10867;45.084;5.732;2022-07-10T12:39:12;5.20;;;1.70;;
21412;SDS011;10867;45.084;5.732;2022-07-10T12:44:31;5.55;;;3.17;;
21412;SDS011;10867;45.084;5.732;2022-07-10T12:47:02;3.38;;;1.80;;
21412;SDS011;10867;45.084;5.732;2022-07-10T12:49:28;2.85;;;1.60;;
21412;SDS011;10867;45.084;5.732;2022-07-10T12:51:54;4.15;;;1.92;;
21412;SDS011;10867;45.084;5.732;2022-07-10T12:54:31;4.53;;;1.70;;
21412;SDS011;10867;45.084;5.732;2022-07-10T12:56:58;4.30;;;1.90;;
21412;SDS011;10867;45.084;5.732;2022-07-10T12:59:24;4.18;;;1.60;;
21412;SDS011;10867;45.084;5.732;2022-07-10T13:01:50;3.23;;;1.60;;
21412;SDS011;10867;45.084;5.732;2022-07-10T13:04:22;2.47;;;1.70;;
21412;SDS011;10867;45.084;5.732;2022-07-10T13:06:48;3.13;;;1.50;;
21412;SDS011;10867;45.084;5.732;2022-07-10T13:09:21;2.70;;;2.00;;
21412;SDS011;10867;45.084;5.732;2022-07-10T13:11:48;4.10;;;1.50;;
21412;SDS011;10867;45.084;5.732;2022-07-10T13:14:14;3.28;;;1.30;;
21412;SDS011;10867;45.084;5.732;2022-07-10T13:16:41;2.10;;;1.50;;
21412;SDS011;10867;45.084;5.732;2022-07-10T13:19:07;4.68;;;1.85;;
21412;SDS011;10867;45.084;5.732;2022-07-10T13:21:33;3.47;;;1.60;;
21412;SDS011;10867;45.084;5.732;2022-07-10T13:23:59;3.13;;;1.40;;
21412;SDS011;10867;45.084;5.732;2022-07-10T13:26:25;1.90;;;1.30;;
21412;SDS011;10867;45.084;5.732;2022-07-10T13:28:54;3.15;;;1.30;;
21412;SDS011;10867;45.084;5.732;2022-07-10T13:31:20;2.17;;;1.30;;
21412;SDS011;10867;45.084;5.732;2022-07-10T13:33:46;2.30;;;1.50;;
21412;SDS011;10867;45.084;5.732;2022-07-10T13:36:12;3.63;;;1.50;;
21412;SDS011;10867;45.084;5.732;2022-07-10T13:38:39;2.60;;;1.20;;
21412;SDS011;10867;45.084;5.732;2022-07-10T13:41:07;3.10;;;1.40;;
21412;SDS011;10867;45.084;5.732;2022-07-10T13:43:34;3.10;;;1.80;;
21412;SDS011;10867;45.084;5.732;2022-07-10T13:46:01;1.85;;;1.20;;
21412;SDS011;10867;45.084;5.732;2022-07-10T13:48:28;3.08;;;1.48;;
21412;SDS011;10867;45.084;5.732;2022-07-10T13:50:55;2.92;;;1.13;;
21412;SDS011;10867;45.084;5.732;2022-07-10T13:53:22;2.75;;;1.38;;
21412;SDS011;10867;45.084;5.732;2022-07-10T13:55:48;2.90;;;1.40;;
21412;SDS011;10867;45.084;5.732;2022-07-10T13:58:15;4.22;;;1.30;;
21412;SDS011;10867;45.084;5.732;2022-07-10T14:00:41;4.50;;;1.27;;
21412;SDS011;10867;45.084;5.732;2022-07-10T14:03:07;1.88;;;1.23;;
21412;SDS011;10867;45.084;5.732;2022-07-10T14:05:34;3.42;;;1.38;;
21412;SDS011;10867;45.084;5.732;2022-07-10T14:08:01;2.47;;;1.30;;
21412;SDS011;10867;45.084;5.732;2022-07-10T14:10:28;3.88;;;1.35;;
21412;SDS011;10867;45.084;5.732;2022-07-10T14:12:54;2.55;;;1.25;;
21412;SDS011;10867;45.084;5.732;2022-07-10T14:15:21;2.80;;;1.20;;
21412;SDS011;10867;45.084;5.732;2022-07-10T14:17:47;1.97;;;1.30;;
21412;SDS011;10867;45.084;5.732;2022-07-10T14:20:13;3.88;;;1.30;;
21412;SDS011;10867;45.084;5.732;2022-07-10T14:22:40;1.95;;;1.20;;
21412;SDS011;10867;45.084;5.732;2022-07-10T14:25:07;3.67;;;1.33;;
21412;SDS011;10867;45.084;5.732;2022-07-10T14:27:36;3.15;;;1.30;;
21412;SDS011;10867;45.084;5.732;2022-07-10T14:30:03;2.17;;;1.30;;
21412;SDS011;10867;45.084;5.732;2022-07-10T14:32:29;1.67;;;1.13;;
21412;SDS011;10867;45.084;5.732;2022-07-10T14:34:55;3.75;;;1.40;;
21412;SDS011;10867;45.084;5.732;2022-07-10T14:37:21;3.00;;;1.50;;
21412;SDS011;10867;45.084;5.732;2022-07-10T14:39:47;1.60;;;1.20;;
21412;SDS011;10867;45.084;5.732;2022-07-10T14:42:14;2.67;;;1.13;;
21412;SDS011;10867;45.084;5.732;2022-07-10T14:44:40;2.15;;;1.30;;
21412;SDS011;10867;45.084;5.732;2022-07-10T14:47:06;1.80;;;1.30;;
21412;SDS011;10867;45.084;5.732;2022-07-10T14:49:32;2.35;;;1.40;;
21412;SDS011;10867;45.084;5.732;2022-07-10T14:51:58;3.28;;;1.50;;
21412;SDS011;10867;45.084;5.732;2022-07-10T14:54:25;2.60;;;1.20;;
21412;SDS011;10867;45.084;5.732;2022-07-10T14:56:51;3.20;;;1.30;;
21412;SDS011;10867;45.084;5.732;2022-07-10T14:59:17;2.63;;;1.30;;
21412;SDS011;10867;45.084;5.732;2022-07-10T15:01:43;3.38;;;1.40;;
21412;SDS011;10867;45.084;5.732;2022-07-10T15:04:09;3.03;;;1.23;;
21412;SDS011;10867;45.084;5.732;2022-07-10T15:06:35;2.30;;;1.40;;
21412;SDS011;10867;45.084;5.732;2022-07-10T15:09:02;4.30;;;1.40;;
21412;SDS011;10867;45.084;5.732;2022-07-10T15:11:29;2.42;;;1.20;;
21412;SDS011;10867;45.084;5.732;2022-07-10T15:13:55;2.65;;;1.40;;
21412;SDS011;10867;45.084;5.732;2022-07-10T15:16:27;3.97;;;1.20;;
21412;SDS011;10867;45.084;5.732;2022-07-10T15:18:54;3.25;;;1.40;;
21412;SDS011;10867;45.084;5.732;2022-07-10T15:21:21;3.00;;;1.25;;
21412;SDS011;10867;45.084;5.732;2022-07-10T15:23:47;4.30;;;1.40;;
21412;SDS011;10867;45.084;5.732;2022-07-10T15:26:14;4.37;;;1.40;;
21412;SDS011;10867;45.084;5.732;2022-07-10T15:28:40;5.10;;;1.35;;